EGHH

Bournemouth Airport

Bournemouth, United Kingdom
TAF EGHH 211656Z 2118/2203 36009KT 9999 FEW045
Issued Valid From Valid To
Jun-21 @ 16:56 UTC
(an hour ago)
Jun-21 @ 18:00 UTC
(3 minutes ago)
Jun-22 @ 03:00 UTC
(in 9 hours)
Jun-21 @ 18:00 to Jun-22 @ 03:00
TAF EGHH 211656Z 2118/2203 36009KT 9999 FEW045
Wind Visibility Clouds
360° at 9 knots 10,000+ meters
  • Few at 4,500' AGL
TAF EGHH 211656Z 2118/2203 36009KT 9999 FEW045
Issued Jun-21 @ 16:56 UTC
(an hour ago)
Valid From Jun-21 @ 18:00 UTC
(3 minutes ago)
Valid To Jun-22 @ 03:00 UTC
(in 9 hours)
Jun-21 @ 18:00 - Jun-22 @ 03:00
Wind Visibility
360° at 9 knots 10,000+ meters
Clouds
  • Few at 4,500' AGL